Saxon, Washington
Current Conditions -  °F | °C
As of 10:53 AM on Friday 21 Nov 2014 (Local Time) from KBLI Reporting Station
Light Rain Light Rain  
Wind Chill: 53°   Ceiling: 2600
Heat Index: 53°   Visibility: 10mi
Dew Point: 45°   Wind: 25mph
Humidity: 74%   Direction: 140°SE
Pressure: 29.57"   Gusts: 35mph
Location:  48.6897°N, 122.171°W
Report Text: KBLI 211853Z 14022G30KT 10SM -RA BKN026 BKN036 OVC065 12/07 A2957 RMK AO2 PK WND 13030/1852 SLP021 P0001 T01170072
Loading
Personal Weather Stations






























Interactive Weather Map New forecast layout! Learn more

10-Day Weather Forecast

Advertisements
Track Severe Weather on mobile